Time;durP1;ratioP1;P1;durP2;ratioP2;P2;SDS_P1;SDS_P2;PMS_P1;PMS_P2;Temp;Humidity;BMP_temperature;BMP_pressure;BME280_temperature;BME280_humidity;BME280_pressure;Samples;Min_cycle;Max_cycle;Signal;HPM_P1;HPM_P2
2021/12/24 00:00:10;;;;;;;38.55;28.02;;;;;;;5.49;71.55;101570.88;4987570;28;20046;-85
2021/12/24 00:02:38;;;;;;;36.45;28.10;;;;;;;5.45;71.18;101550.03;4987073;28;20066;-85
2021/12/24 00:05:06;;;;;;;37.55;28.38;;;;;;;5.65;71.37;101573.53;4987447;28;20082;-86
2021/12/24 00:07:33;;;;;;;33.58;27.30;;;;;;;4.82;71.12;101421.69;4987296;28;20153;-86
2021/12/24 00:10:00;;;;;;;35.38;27.33;;;;;;;5.08;69.90;101476.44;4987455;28;20051;-84
2021/12/24 00:12:30;;;;;;;31.88;26.27;;;;;;;5.06;69.94;101456.41;4970287;28;20109;-87
2021/12/24 00:15:02;;;;;;;34.92;26.50;;;;;;;4.33;70.01;101332.19;4970291;28;20061;-88
2021/12/24 00:17:33;;;;;;;35.78;27.63;;;;;;;3.78;70.33;101243.84;4987430;28;20125;-89
2021/12/24 00:36:16;;;;;;;34.10;26.05;;;;;;;4.96;70.96;101378.88;4968749;28;20053;-88
2021/12/24 00:38:42;;;;;;;37.45;26.45;;;;;;;4.58;70.17;101318.59;4968910;28;20058;-88
2021/12/24 00:41:15;;;;;;;35.17;27.85;;;;;;;5.06;70.31;101401.13;4967920;28;20142;-87
2021/12/24 00:43:42;;;;;;;35.20;26.92;;;;;;;5.06;69.81;101396.72;4950536;28;20288;-88
2021/12/24 00:46:08;;;;;;;33.83;27.83;;;;;;;4.90;70.53;101380.91;4951953;28;20062;-86
2021/12/24 00:48:35;;;;;;;34.88;27.42;;;;;;;3.86;70.56;101202.31;4954166;28;20573;-88
2021/12/24 00:55:59;;;;;;;36.72;27.75;;;;;;;5.23;70.89;101437.09;4971554;28;20557;-85
2021/12/24 00:58:26;;;;;;;34.33;27.83;;;;;;;4.64;70.89;101341.97;4953918;28;20418;-85
2021/12/24 01:00:53;;;;;;;34.63;27.20;;;;;;;5.79;71.18;101526.22;4953759;28;20418;-85
2021/12/24 01:03:23;;;;;;;35.45;27.35;;;;;;;4.96;71.22;101394.66;4953852;28;20143;-86
2021/12/24 01:05:53;;;;;;;38.50;26.60;;;;;;;5.24;70.17;101436.16;4953671;28;20461;-88
2021/12/24 01:08:21;;;;;;;33.13;27.17;;;;;;;4.99;70.77;101394.50;4954121;28;20047;-87
2021/12/24 01:10:55;;;;;;;36.85;27.70;;;;;;;3.94;71.04;101215.88;4954078;28;20525;-88
2021/12/24 01:13:23;;;;;;;38.17;27.35;;;;;;;4.14;69.75;101262.16;4971121;28;20057;-85
2021/12/24 01:15:58;;;;;;;38.13;28.20;;;;;;;5.79;70.34;101528.84;4953675;28;20343;-88
2021/12/24 01:23:54;;;;;;;36.58;27.17;;;;;;;4.71;70.57;101348.59;4970641;28;20055;-86
2021/12/24 01:26:50;;;;;;;34.60;27.95;;;;;;;4.04;69.20;101230.25;4981002;28;20301;-86
2021/12/24 01:42:46;;;;;;;30.38;25.98;;;;;;;5.82;68.55;101477.78;4989812;28;20054;-87
2021/12/24 01:45:28;;;;;;;40.38;29.35;;;;;;;4.18;68.06;101197.16;4972704;28;20096;-86
2021/12/24 01:47:57;;;;;;;34.58;27.98;;;;;;;4.71;68.00;101275.81;4972662;28;20050;-86
2021/12/24 01:50:27;;;;;;;35.70;27.00;;;;;;;4.52;67.47;101221.66;4972550;28;20046;-85
2021/12/24 01:52:55;;;;;;;32.92;26.10;;;;;;;4.36;67.28;101205.84;4972525;28;20050;-86
2021/12/24 01:55:24;;;;;;;33.20;26.67;;;;;;;4.53;67.33;101237.31;4972397;28;20506;-86
2021/12/24 01:57:51;;;;;;;36.67;27.13;;;;;;;4.99;68.53;101320.81;4989534;28;20125;-87
2021/12/24 02:00:27;;;;;;;32.70;26.33;;;;;;;4.59;68.48;101265.09;4971968;28;20086;-88
2021/12/24 02:02:57;;;;;;;34.58;28.63;;;;;;;5.18;69.03;101371.53;4988229;28;20054;-87
2021/12/24 02:05:24;;;;;;;35.47;26.50;;;;;;;5.65;69.71;101457.63;4991190;28;20060;-88
2021/12/24 02:07:51;;;;;;;33.58;26.42;;;;;;;5.50;69.17;101437.41;4991622;28;20081;-85
2021/12/24 02:10:19;;;;;;;32.83;27.42;;;;;;;5.04;69.96;101374.06;5008776;28;20485;-87
2021/12/24 02:12:48;;;;;;;34.42;27.67;;;;;;;5.63;70.56;101485.84;4991426;28;20046;-86
2021/12/24 02:28:15;;;;;;;36.15;27.67;;;;;;;3.84;71.40;101196.28;5027053;28;20054;-87
2021/12/24 02:29:22;;;;;;;32.13;26.05;;;;;;;3.72;71.12;101194.28;5008855;28;20144;-85
2021/12/24 02:31:49;;;;;;;34.65;26.98;;;;;;;4.07;71.90;101253.72;4990819;28;20057;-89
2021/12/24 02:34:15;;;;;;;32.83;26.35;;;;;;;5.31;72.13;101456.81;5007461;28;20073;-89
2021/12/24 02:36:42;;;;;;;34.95;26.90;;;;;;;3.34;71.27;101115.69;5008098;28;20128;-89
2021/12/24 02:39:09;;;;;;;33.10;27.77;;;;;;;4.60;71.45;101316.75;4990942;28;20086;-86
2021/12/24 02:41:36;;;;;;;34.72;27.83;;;;;;;4.27;71.29;101249.22;4990593;28;20123;-87
2021/12/24 02:44:03;;;;;;;34.40;28.02;;;;;;;5.45;71.67;101429.75;5007989;28;20049;-87
2021/12/24 02:46:38;;;;;;;31.35;26.58;;;;;;;4.52;71.87;101300.53;4990887;28;20375;-86
2021/12/24 02:49:13;;;;;;;31.60;27.20;;;;;;;4.69;72.38;101337.31;4990722;28;20050;-87
2021/12/24 02:54:27;;;;;;;32.47;26.10;;;;;;;3.77;72.97;101185.22;5008324;28;20053;-85
2021/12/24 02:56:58;;;;;;;32.25;26.33;;;;;;;3.34;72.18;101111.28;5008610;28;20057;-88
2021/12/24 02:59:26;;;;;;;33.20;26.65;;;;;;;4.12;72.57;101245.59;5008270;28;20065;-89
2021/12/24 03:01:56;;;;;;;34.17;26.63;;;;;;;4.60;73.32;101329.91;4991488;28;20065;-86
2021/12/24 03:04:23;;;;;;;32.10;25.85;;;;;;;3.63;72.61;101164.91;5007981;28;20046;-86
2021/12/24 03:06:52;;;;;;;32.42;25.35;;;;;;;3.89;73.39;101212.66;4989938;28;20524;-85
2021/12/24 03:09:20;;;;;;;30.98;25.00;;;;;;;4.99;73.49;101432.19;5007774;28;20049;-87
2021/12/24 03:11:49;;;;;;;37.15;28.83;;;;;;;4.70;72.78;101378.44;5007293;28;20650;-86
2021/12/24 03:14:19;;;;;;;35.10;26.85;;;;;;;4.14;73.42;101285.78;4990250;28;20560;-90
2021/12/24 03:16:54;;;;;;;30.90;23.80;;;;;;;2.98;73.42;101087.72;4989977;28;20081;-87
2021/12/24 03:19:25;;;;;;;32.35;26.75;;;;;;;2.97;73.14;101093.91;4989770;28;20196;-86
2021/12/24 03:21:58;;;;;;;32.65;26.05;;;;;;;4.18;73.97;101302.28;4989709;28;20478;-90
2021/12/24 03:26:51;;;;;;;33.75;27.38;;;;;;;3.77;73.70;101213.28;4979192;28;20432;-86
2021/12/24 03:29:19;;;;;;;32.60;24.52;;;;;;;3.50;74.33;101153.34;4968056;28;20601;-88
2021/12/24 03:31:47;;;;;;;34.75;26.25;;;;;;;3.02;73.27;101068.28;4966405;28;20467;-87
2021/12/24 03:34:17;;;;;;;33.90;26.65;;;;;;;3.71;73.55;101167.16;4967525;28;20432;-87
2021/12/24 03:36:45;;;;;;;32.13;25.77;;;;;;;3.18;74.42;101074.47;4967020;28;20196;-84
2021/12/24 03:39:13;;;;;;;35.40;26.75;;;;;;;5.06;73.87;101386.19;4968332;28;20053;-87
2021/12/24 03:41:40;;;;;;;33.53;28.10;;;;;;;3.31;73.00;101084.34;4967375;28;20074;-88
2021/12/24 03:44:09;;;;;;;31.27;25.20;;;;;;;3.84;72.70;101154.25;4967189;28;20090;-86
2021/12/24 03:54:58;;;;;;;31.15;25.95;;;;;;;3.56;73.40;101126.78;4967588;28;20054;-86
2021/12/24 03:57:32;;;;;;;28.63;23.58;;;;;;;4.99;72.61;101370.81;4966857;28;20522;-85
2021/12/24 04:00:05;;;;;;;32.28;26.35;;;;;;;4.25;73.07;101259.81;4968779;28;20047;-85
2021/12/24 04:02:31;;;;;;;31.80;25.23;;;;;;;3.82;73.51;101166.59;4966639;28;20121;-87
2021/12/24 04:04:58;;;;;;;30.52;24.83;;;;;;;4.01;73.45;101201.50;4966796;28;20055;-87
2021/12/24 04:07:25;;;;;;;31.40;25.48;;;;;;;4.17;73.46;101226.97;4965917;28;20061;-89
2021/12/24 04:10:25;;;;;;;29.42;24.58;;;;;;;2.81;73.56;101022.16;4967026;28;20046;-87
2021/12/24 04:12:39;;;;;;;31.48;24.85;;;;;;;3.32;73.92;101114.91;4967070;28;20122;-86
2021/12/24 04:15:06;;;;;;;29.35;24.08;;;;;;;4.74;73.78;101379.16;4966516;28;20066;-86
2021/12/24 04:17:37;;;;;;;33.70;26.23;;;;;;;2.90;73.35;101063.66;4966925;28;20054;-85
2021/12/24 04:25:26;;;;;;;31.00;23.73;;;;;;;3.49;74.19;101182.28;4974671;28;20053;-86
2021/12/24 04:27:57;;;;;;;30.80;24.52;;;;;;;4.68;74.21;101378.56;4990860;28;20302;-88
2021/12/24 04:30:29;;;;;;;34.13;23.50;;;;;;;3.21;74.00;101126.78;4991390;28;20486;-86
2021/12/24 04:52:05;;;;;;;31.90;24.92;;;;;;;3.44;73.39;101127.41;4990727;28;20046;-85
2021/12/24 05:02:57;;;;;;;36.15;27.33;;;;;;;4.96;73.56;101315.72;4973202;28;20118;-88
2021/12/24 05:05:37;;;;;;;;;;;;;;;5.26;73.07;101335.09;4973443;28;20042;-86
2021/12/24 05:08:23;;;;;;;33.92;25.27;;;;;;;3.84;72.84;101115.69;4971299;28;19922;-87
2021/12/24 05:10:52;;;;;;;34.17;25.27;;;;;;;3.91;72.84;101128.50;4971565;28;20206;-85
2021/12/24 05:13:21;;;;;;;31.67;25.33;;;;;;;3.83;73.39;101105.25;4970543;28;20054;-88
2021/12/24 05:15:53;;;;;;;32.03;24.50;;;;;;;4.85;73.20;101269.78;5004802;28;20057;-87
2021/12/24 05:18:37;;;;;;;34.13;25.88;;;;;;;4.40;73.66;101208.22;4993035;28;20049;-87
2021/12/24 05:23:49;;;;;;;33.78;26.48;;;;;;;3.39;72.78;101040.16;5009206;28;20065;-89
2021/12/24 05:26:18;;;;;;;30.52;24.55;;;;;;;3.49;73.56;101054.50;4972679;28;20076;-86
2021/12/24 05:28:44;;;;;;;31.85;25.90;;;;;;;5.12;73.85;101342.88;4970047;28;20109;-86
2021/12/24 05:31:14;;;;;;;32.33;23.45;;;;;;;3.77;73.33;101113.47;4953786;28;20415;-85
2021/12/24 05:33:41;;;;;;;33.15;25.17;;;;;;;4.78;73.38;101275.47;4952138;28;20057;-86
2021/12/24 05:36:07;;;;;;;29.73;24.60;;;;;;;3.31;73.05;101037.09;4952477;28;20046;-87
2021/12/24 05:38:34;;;;;;;32.20;25.85;;;;;;;3.42;73.50;101064.50;4971194;28;20596;-87
2021/12/24 05:41:03;;;;;;;31.00;23.60;;;;;;;3.25;73.85;101048.75;4983668;28;20057;-89
2021/12/24 05:43:29;;;;;;;29.08;24.50;;;;;;;3.61;73.65;101109.00;4994570;28;20214;-91
2021/12/24 05:45:57;;;;;;;32.58;25.15;;;;;;;4.32;73.80;101226.19;4989946;28;20058;-87
2021/12/24 05:48:24;;;;;;;31.95;24.52;;;;;;;3.29;73.96;101044.22;4953060;28;20607;-86
2021/12/24 05:50:51;;;;;;;27.80;23.42;;;;;;;2.88;74.07;100978.97;4953027;28;20070;-87
2021/12/24 05:53:17;;;;;;;29.08;22.75;;;;;;;3.56;73.88;101092.63;4952505;28;20430;-88
2021/12/24 05:55:44;;;;;;;30.52;23.75;;;;;;;3.12;74.28;101009.19;4969622;28;20538;-85
2021/12/24 05:58:12;;;;;;;29.25;22.92;;;;;;;3.29;74.07;101025.84;4952722;28;20051;-85
2021/12/24 06:00:43;;;;;;;30.05;23.77;;;;;;;3.50;73.87;101058.00;4952651;28;20086;-86
2021/12/24 06:03:10;;;;;;;32.15;24.95;;;;;;;3.69;73.78;101094.63;4952187;28;20820;-86
2021/12/24 06:05:43;;;;;;;34.97;23.77;;;;;;;4.40;73.96;101181.94;4952371;28;20046;-86
2021/12/24 06:08:13;;;;;;;31.63;24.42;;;;;;;4.00;73.58;101126.22;4969818;28;20160;-88
2021/12/24 06:10:41;;;;;;;26.38;21.05;;;;;;;5.00;73.58;101301.44;4969537;28;20054;-86
2021/12/24 06:13:08;;;;;;;30.10;22.35;;;;;;;5.06;74.07;101301.97;4952323;28;20145;-88
2021/12/24 06:15:42;;;;;;;27.80;22.95;;;;;;;5.07;73.68;101302.81;4952566;28;20043;-86
2021/12/24 06:18:23;;;;;;;32.15;23.63;;;;;;;3.57;73.42;101044.47;4952311;28;20051;-82
2021/12/24 06:20:50;;;;;;;29.23;22.40;;;;;;;3.91;74.04;101091.72;4969562;28;20058;-87
2021/12/24 06:23:19;;;;;;;27.38;22.90;;;;;;;4.13;73.58;101120.34;4952345;28;20058;-86
2021/12/24 06:25:48;;;;;;;27.83;22.63;;;;;;;3.96;73.95;101100.22;4952207;28;20070;-86
2021/12/24 06:28:15;;;;;;;29.02;23.00;;;;;;;4.74;73.59;101237.13;4952056;28;20149;-86
2021/12/24 06:30:42;;;;;;;28.15;22.77;;;;;;;4.87;73.16;101253.91;4952376;28;20609;-87
2021/12/24 06:33:09;;;;;;;27.50;22.08;;;;;;;5.03;73.56;101286.34;4951983;28;20058;-86
2021/12/24 06:35:37;;;;;;;32.28;23.13;;;;;;;4.14;73.45;101122.03;4969213;28;20058;-87
2021/12/24 06:38:04;;;;;;;29.90;23.42;;;;;;;3.81;73.58;101076.47;4951057;28;20055;-86
2021/12/24 06:40:32;;;;;;;36.45;28.67;;;;;;;3.33;73.70;100998.53;4968340;28;20255;-85
2021/12/24 06:42:59;;;;;;;37.95;25.23;;;;;;;4.34;73.85;101165.63;4951140;28;20419;-88
2021/12/24 06:45:26;;;;;;;30.00;22.08;;;;;;;3.55;73.58;101014.81;4968774;28;20415;-87
2021/12/24 06:47:56;;;;;;;26.88;21.23;;;;;;;3.30;73.40;100989.03;4967971;28;20145;-84
2021/12/24 06:50:26;;;;;;;31.95;23.15;;;;;;;3.84;73.64;101078.09;4968636;28;20113;-88
2021/12/24 06:52:54;;;;;;;32.58;22.27;;;;;;;4.70;73.27;101205.69;4950914;28;20495;-87
2021/12/24 06:55:22;;;;;;;29.42;22.55;;;;;;;3.32;72.46;100984.53;4951071;28;20416;-87
2021/12/24 06:57:49;;;;;;;28.27;22.25;;;;;;;3.61;72.46;101045.97;4967750;28;20150;-84
2021/12/24 07:00:19;;;;;;;32.08;23.45;;;;;;;4.31;72.94;101156.13;4950748;28;20054;-86
2021/12/24 07:02:47;;;;;;;32.72;24.20;;;;;;;4.34;72.82;101171.72;4968255;28;20149;-88
2021/12/24 07:05:16;;;;;;;29.42;23.50;;;;;;;3.17;73.52;100983.56;4968133;28;20105;-87
2021/12/24 07:07:43;;;;;;;28.98;22.13;;;;;;;4.67;73.95;101241.84;4950879;28;20117;-88
2021/12/24 07:10:10;;;;;;;27.35;22.52;;;;;;;3.64;73.25;101082.59;4967975;28;20086;-87
2021/12/24 07:12:37;;;;;;;28.02;23.92;;;;;;;2.99;73.70;100960.91;4968037;28;20051;-86
2021/12/24 07:15:04;;;;;;;30.60;24.30;;;;;;;4.20;74.05;101175.13;4950314;28;20043;-86
2021/12/24 07:17:31;;;;;;;30.05;21.95;;;;;;;3.54;74.04;101070.88;4950973;28;20081;-86
2021/12/24 07:19:57;;;;;;;26.23;22.35;;;;;;;3.91;73.49;101132.00;4950640;28;20051;-86
2021/12/24 07:22:24;;;;;;;29.27;22.83;;;;;;;4.97;73.90;101317.41;4951131;28;20054;-84
2021/12/24 07:24:51;;;;;;;26.83;22.55;;;;;;;4.35;74.07;101219.91;4950841;28;20055;-84
2021/12/24 07:27:20;;;;;;;32.47;23.70;;;;;;;3.24;74.64;101033.09;4962012;28;20133;-86
2021/12/24 07:29:49;;;;;;;32.65;23.58;;;;;;;4.89;74.11;101287.09;4960904;28;20577;-86
2021/12/24 07:32:15;;;;;;;29.45;23.08;;;;;;;4.88;74.02;101293.31;4990778;28;20080;-88
2021/12/24 07:34:42;;;;;;;29.63;23.35;;;;;;;3.84;73.70;101094.69;5007041;28;20389;-84
2021/12/24 07:37:11;;;;;;;31.48;22.83;;;;;;;4.45;73.19;101186.94;4989831;28;20659;-84
2021/12/24 07:39:38;;;;;;;27.67;23.58;;;;;;;4.07;72.54;101111.84;4990151;28;20081;-86
2021/12/24 07:42:05;;;;;;;29.50;23.25;;;;;;;4.50;72.77;101172.59;5007274;28;20065;-87
2021/12/24 07:44:34;;;;;;;28.20;23.33;;;;;;;4.77;72.76;101202.75;4989927;28;20498;-85
2021/12/24 07:47:03;;;;;;;29.90;23.38;;;;;;;3.51;72.40;100989.66;4989507;28;20100;-87
2021/12/24 07:49:37;;;;;;;33.08;24.02;;;;;;;4.72;72.34;101187.22;4990193;28;20053;-86
2021/12/24 07:52:13;;;;;;;27.38;23.42;;;;;;;4.85;72.78;101185.59;4990011;28;20465;-85
2021/12/24 07:54:47;;;;;;;29.23;23.45;;;;;;;4.80;71.86;101157.84;4990020;28;20494;-86
2021/12/24 07:57:38;;;;;;;32.42;24.42;;;;;;;4.75;72.04;101154.63;4991961;28;20104;-87
2021/12/24 08:00:07;;;;;;;27.73;22.95;;;;;;;3.73;71.41;100968.34;5006027;28;20084;-87
2021/12/24 08:02:39;;;;;;;32.90;24.50;;;;;;;3.77;71.87;100976.91;4988204;28;20386;-88
2021/12/24 08:05:06;;;;;;;31.50;28.00;;;;;;;3.80;71.89;100982.84;4989461;28;20115;-88
2021/12/24 08:07:36;;;;;;;36.35;25.77;;;;;;;4.10;71.81;101026.72;5006583;28;20093;-87
2021/12/24 08:10:06;;;;;;;30.67;24.83;;;;;;;5.43;71.53;101242.00;5006770;28;20671;-86
2021/12/24 08:12:35;;;;;;;29.98;24.75;;;;;;;5.17;71.42;101184.72;4989270;28;20057;-88
2021/12/24 08:15:05;;;;;;;27.90;22.38;;;;;;;4.57;71.06;101075.00;5006706;28;20050;-86
2021/12/24 08:17:31;;;;;;;33.25;24.08;;;;;;;5.85;71.72;101290.53;4989404;28;20085;-87
2021/12/24 08:20:05;;;;;;;30.33;22.55;;;;;;;4.72;71.79;101089.91;4989374;28;20112;-87
2021/12/24 08:22:33;;;;;;;30.60;24.15;;;;;;;5.31;71.61;101175.09;5006501;28;20049;-89
2021/12/24 08:25:00;;;;;;;29.25;24.88;;;;;;;4.88;71.21;101106.50;5008603;28;20175;-88
2021/12/24 08:27:29;;;;;;;29.35;24.45;;;;;;;4.23;71.30;100974.38;4952498;28;20050;-87
2021/12/24 08:29:56;;;;;;;33.85;27.13;;;;;;;5.22;70.83;101128.25;4949633;28;20046;-90
2021/12/24 08:32:22;;;;;;;30.25;23.88;;;;;;;5.53;71.00;101171.22;4949129;28;20074;-87
2021/12/24 08:34:51;;;;;;;28.17;23.42;;;;;;;6.05;71.09;101244.56;4967215;28;20062;-86
2021/12/24 08:37:18;;;;;;;32.15;25.35;;;;;;;5.88;71.38;101210.44;4950886;28;20416;-86
2021/12/24 08:39:45;;;;;;;30.80;24.58;;;;;;;5.44;70.33;101133.09;4950685;28;20102;-86
2021/12/24 08:42:12;;;;;;;33.92;26.95;;;;;;;5.85;70.27;101197.44;4950502;28;20082;-88
2021/12/24 08:44:38;;;;;;;32.25;25.67;;;;;;;6.25;70.16;101231.97;4950318;28;20068;-85
2021/12/24 08:47:06;;;;;;;31.20;26.90;;;;;;;6.06;69.50;101187.44;4950154;28;20526;-87
2021/12/24 08:49:33;;;;;;;35.65;27.33;;;;;;;5.87;69.08;101156.88;4950501;28;20394;-86
2021/12/24 08:52:00;;;;;;;34.63;27.50;;;;;;;6.60;67.82;101250.91;4967762;28;20055;-85
2021/12/24 08:54:27;;;;;;;34.40;28.40;;;;;;;6.17;66.87;101169.19;4950664;28;20590;-91
2021/12/24 08:56:55;;;;;;;34.60;28.98;;;;;;;5.20;65.75;101024.84;4950600;28;20563;-84
2021/12/24 08:59:23;;;;;;;37.53;28.15;;;;;;;6.54;65.99;101215.22;4950564;28;20067;-87
2021/12/24 09:01:51;;;;;;;38.05;28.42;;;;;;;5.87;66.43;101080.44;4968904;28;20054;-87
2021/12/24 09:04:19;;;;;;;36.25;29.20;;;;;;;5.67;65.74;101041.31;4961329;28;20143;-89
2021/12/24 09:06:46;;;;;;;35.90;29.45;;;;;;;6.80;65.45;101228.56;4973206;28;20110;-93
2021/12/24 09:09:15;;;;;;;33.63;28.50;;;;;;;6.30;66.06;101135.81;4975691;28;20094;-87
2021/12/24 09:11:44;;;;;;;36.65;29.88;;;;;;;6.91;65.33;101212.03;4955118;28;20485;-88
2021/12/24 09:14:17;;;;;;;35.17;28.20;;;;;;;5.95;64.69;101043.97;4954346;28;20562;-88
2021/12/24 09:16:45;;;;;;;40.10;32.97;;;;;;;6.89;64.36;101183.09;4954181;28;20404;-88
2021/12/24 09:19:16;;;;;;;38.88;30.85;;;;;;;6.33;64.10;101100.50;4954072;28;20568;-87
2021/12/24 09:21:43;;;;;;;39.40;29.83;;;;;;;5.46;63.99;100936.38;4971303;28;20459;-84
2021/12/24 09:24:09;;;;;;;36.13;28.98;;;;;;;6.24;63.65;101070.31;4954023;28;20079;-88
2021/12/24 09:26:38;;;;;;;39.35;31.25;;;;;;;7.28;63.97;101205.22;4986583;28;20504;-86
2021/12/24 09:29:09;;;;;;;37.30;29.42;;;;;;;5.69;62.83;100942.81;4976931;28;20140;-86
2021/12/24 09:31:36;;;;;;;36.22;29.02;;;;;;;5.55;63.10;100934.94;5010246;28;20073;-87
2021/12/24 09:34:03;;;;;;;33.95;28.90;;;;;;;5.75;63.61;100965.28;5010360;28;20042;-88
2021/12/24 09:36:38;;;;;;;34.97;29.58;;;;;;;6.54;63.13;101088.59;4993346;28;20509;-86
2021/12/24 09:39:09;;;;;;;39.33;30.80;;;;;;;6.12;62.95;101005.19;4992883;28;20049;-84
2021/12/24 09:41:36;;;;;;;38.30;30.40;;;;;;;5.72;62.81;100929.44;5010420;28;20057;-87
2021/12/24 09:44:03;;;;;;;34.08;27.75;;;;;;;6.64;63.30;101089.69;5010050;28;20133;-87
2021/12/24 09:46:44;;;;;;;32.05;27.65;;;;;;;6.63;62.58;101088.00;4994391;28;20133;-84
2021/12/24 09:49:16;;;;;;;34.70;26.65;;;;;;;5.74;62.39;100955.72;5011700;28;20050;-86
2021/12/24 09:51:46;;;;;;;36.83;28.30;;;;;;;5.95;63.12;100979.91;5010183;28;20054;-86
2021/12/24 09:54:16;;;;;;;32.67;27.75;;;;;;;6.33;63.07;101047.75;4992110;28;20045;-87
2021/12/24 09:56:43;;;;;;;37.50;30.95;;;;;;;6.35;63.29;101035.34;4992387;28;20127;-88
2021/12/24 09:59:10;;;;;;;41.33;31.73;;;;;;;7.31;64.05;101183.91;4989596;28;20472;-87
2021/12/24 10:01:42;;;;;;;39.08;29.40;;;;;;;7.24;65.08;101138.56;5009748;28;20057;-88
2021/12/24 10:04:11;;;;;;;;;;;;;;;7.43;65.03;101156.69;4993060;28;20053;-88
2021/12/24 10:06:39;;;;;;;37.63;32.20;;;;;;;7.28;64.52;101137.44;5009104;28;20419;-88
2021/12/24 10:09:11;;;;;;;40.53;30.33;;;;;;;7.46;64.87;101156.47;4991669;28;20053;-88
2021/12/24 10:12:02;;;;;;;39.38;31.10;;;;;;;6.95;64.14;101045.47;4991946;28;20053;-85
2021/12/24 10:14:37;;;;;;;39.03;31.02;;;;;;;6.95;64.27;101034.91;4992453;28;20588;-88
2021/12/24 10:17:13;;;;;;;36.45;30.10;;;;;;;7.17;64.64;101065.16;5009638;28;20437;-88
2021/12/24 10:19:48;;;;;;;37.83;30.90;;;;;;;6.96;64.03;101033.94;4991606;28;20379;-86
2021/12/24 10:22:16;;;;;;;40.53;32.17;;;;;;;6.75;64.28;100991.38;4991827;28;20054;-85
2021/12/24 10:25:08;;;;;;;37.42;31.08;;;;;;;7.05;64.46;101040.41;5009340;28;20046;-85
2021/12/24 10:27:38;;;;;;;36.72;30.45;;;;;;;6.58;63.54;100984.56;4991051;28;20049;-88
2021/12/24 10:30:31;;;;;;;41.00;32.60;;;;;;;7.68;63.43;101163.78;5007570;28;20098;-86
2021/12/24 10:33:08;;;;;;;37.05;28.25;;;;;;;7.66;63.56;101156.94;4991565;28;20465;-88
2021/12/24 10:35:35;;;;;;;39.60;31.42;;;;;;;6.97;63.24;101051.50;4991918;28;20088;-86
2021/12/24 10:38:14;;;;;;;35.90;30.50;;;;;;;6.44;63.38;100954.78;4991182;28;20476;-87
2021/12/24 10:40:52;;;;;;;39.80;32.28;;;;;;;6.49;63.40;100948.25;4971601;28;20108;-86
2021/12/24 10:43:36;;;;;;;37.03;30.98;;;;;;;6.59;62.53;100980.13;4971829;28;20062;-84
2021/12/24 10:46:10;;;;;;;37.53;30.70;;;;;;;6.64;62.59;100978.88;4971198;28;20050;-86
2021/12/24 10:48:46;;;;;;;41.95;32.50;;;;;;;6.11;62.93;100896.22;4988031;28;20057;-86
2021/12/24 10:51:21;;;;;;;36.47;30.08;;;;;;;6.30;63.12;100929.31;4987688;28;20058;-85
2021/12/24 10:54:09;;;;;;;37.58;30.02;;;;;;;7.66;63.14;101144.56;4971760;28;20046;-86
2021/12/24 10:56:36;;;;;;;46.22;32.63;;;;;;;6.55;62.58;100953.13;4988505;28;20055;-86
2021/12/24 10:59:04;;;;;;;41.20;30.83;;;;;;;7.76;62.72;101150.06;4971125;28;20554;-87
2021/12/24 11:01:32;;;;;;;43.97;33.88;;;;;;;6.80;62.77;100993.72;4986484;28;20292;-87
2021/12/24 11:03:59;;;;;;;39.25;32.13;;;;;;;6.34;62.67;100936.09;4985560;28;20058;-86
2021/12/24 11:06:30;;;;;;;41.00;32.08;;;;;;;6.76;63.03;101005.41;4987145;28;20054;-85
2021/12/24 11:09:01;;;;;;;39.45;32.65;;;;;;;5.85;63.24;100841.72;4971571;28;20061;-85
2021/12/24 11:11:38;;;;;;;42.35;32.95;;;;;;;6.61;62.92;100963.25;4971479;28;20137;-87
2021/12/24 11:14:18;;;;;;;39.58;33.17;;;;;;;7.39;62.75;101102.34;4988439;28;20112;-88
2021/12/24 11:16:45;;;;;;;37.42;31.13;;;;;;;7.17;63.63;101075.72;4971398;28;20081;-86
2021/12/24 11:19:12;;;;;;;38.53;31.83;;;;;;;6.50;63.74;100955.19;4971180;28;20050;-88
2021/12/24 11:21:39;;;;;;;37.50;32.50;;;;;;;6.09;64.21;100895.50;4971160;28;20051;-86
2021/12/24 11:24:09;;;;;;;40.85;33.55;;;;;;;6.49;64.56;100948.25;4970928;28;20145;-88
2021/12/24 11:26:50;;;;;;;37.95;30.90;;;;;;;6.50;64.02;100955.19;4988160;28;20727;-88
2021/12/24 11:29:18;;;;;;;37.50;31.88;;;;;;;5.88;64.95;100852.09;4970426;28;20060;-87
2021/12/24 11:31:45;;;;;;;38.78;31.60;;;;;;;5.62;64.80;100841.44;4990988;28;20095;-86
2021/12/24 11:34:12;;;;;;;38.95;32.13;;;;;;;6.08;64.41;100896.44;4988567;28;20100;-89
2021/12/24 11:36:39;;;;;;;38.40;31.70;;;;;;;6.70;65.12;101009.31;5006826;28;20057;-87
2021/12/24 11:39:08;;;;;;;37.17;31.52;;;;;;;6.81;64.43;101033.16;4989501;28;20139;-88
2021/12/24 11:41:37;;;;;;;39.00;32.28;;;;;;;6.31;64.85;100949.44;5006850;28;20129;-88
2021/12/24 11:44:07;;;;;;;39.85;32.42;;;;;;;7.37;64.72;101125.38;5006826;28;20137;-88
2021/12/24 11:46:37;;;;;;;39.97;31.75;;;;;;;5.88;64.61;100888.97;4988736;28;20584;-88
2021/12/24 11:49:05;;;;;;;42.05;31.83;;;;;;;5.82;64.89;100863.84;4990757;28;20062;-86
2021/12/24 11:51:40;;;;;;;38.35;31.73;;;;;;;5.55;64.51;100835.69;5008601;28;20058;-87
2021/12/24 11:54:09;;;;;;;35.72;30.30;;;;;;;6.14;64.96;100927.69;5017865;28;20068;-88
2021/12/24 11:56:44;;;;;;;36.70;30.92;;;;;;;7.16;64.90;101100.41;5018042;28;20061;-88
2021/12/24 11:59:11;;;;;;;39.78;31.48;;;;;;;5.83;65.15;100880.53;5003111;28;20058;-87
2021/12/24 12:01:44;;;;;;;40.10;31.70;;;;;;;6.62;64.49;101011.59;5003454;28;20050;-88
2021/12/24 12:04:21;;;;;;;34.30;29.70;;;;;;;6.39;64.86;100974.38;5011987;28;20054;-90
2021/12/24 12:06:47;;;;;;;37.90;30.98;;;;;;;7.10;64.79;101091.09;4993918;28;20057;-87
2021/12/24 12:09:14;;;;;;;42.33;32.88;;;;;;;6.82;64.93;101049.84;4990764;28;20518;-88
2021/12/24 12:11:47;;;;;;;35.97;31.38;;;;;;;5.98;65.03;100916.44;4988085;28;20053;-88
2021/12/24 12:14:23;;;;;;;37.10;30.52;;;;;;;7.05;65.49;101104.59;5004822;28;20173;-86
2021/12/24 12:16:56;;;;;;;39.90;31.65;;;;;;;6.53;65.11;101026.25;4986975;28;20671;-87
2021/12/24 12:24:57;;;;;;;36.22;31.92;;;;;;;6.24;64.88;100998.25;5005841;28;20387;-86
2021/12/24 12:27:51;;;;;;;39.92;31.52;;;;;;;6.52;65.14;101048.28;4968200;28;20466;-87
2021/12/24 12:30:26;;;;;;;38.42;32.65;;;;;;;6.28;65.35;100997.13;4968013;28;20113;-85
2021/12/24 12:33:15;;;;;;;40.25;33.45;;;;;;;6.79;65.40;101081.72;4971775;28;20459;-86
2021/12/24 12:35:58;;;;;;;38.50;32.42;;;;;;;6.35;65.89;100995.78;4985754;28;20230;-90
2021/12/24 12:38:27;;;;;;;43.55;33.53;;;;;;;6.79;66.13;101063.25;4991506;28;20059;-92
2021/12/24 12:41:21;;;;;;;36.38;31.55;;;;;;;6.81;66.02;101061.34;5012652;28;20506;-86
2021/12/24 12:43:50;;;;;;;38.38;33.25;;;;;;;5.44;66.26;100832.09;4990213;28;20425;-85
2021/12/24 12:46:24;;;;;;;38.85;33.33;;;;;;;6.19;66.73;100978.31;4992992;28;20144;-86
2021/12/24 12:48:53;;;;;;;38.83;32.58;;;;;;;5.29;66.59;100805.78;4993295;28;20049;-87
2021/12/24 12:51:41;;;;;;;39.95;31.77;;;;;;;5.79;67.22;100888.59;5009856;28;20542;-89
2021/12/24 12:54:36;;;;;;;39.63;31.08;;;;;;;6.92;67.10;101060.63;4989795;28;20061;-85
2021/12/24 12:57:15;;;;;;;38.13;31.77;;;;;;;6.94;66.46;101049.06;4992142;28;20444;-86
2021/12/24 13:00:08;;;;;;;36.03;31.63;;;;;;;5.90;66.06;100876.53;4954508;28;20490;-85
2021/12/24 13:02:53;;;;;;;;;;;;;;;6.94;65.75;101054.34;4970643;28;20138;-87
2021/12/24 13:05:20;;;;;;;34.75;30.67;;;;;;;5.92;65.64;100898.34;4953479;28;20469;-86
2021/12/24 13:07:48;;;;;;;39.20;32.92;;;;;;;5.35;64.94;100794.00;4953672;28;20058;-87
2021/12/24 13:10:17;;;;;;;38.13;32.15;;;;;;;5.79;65.22;100856.97;4970382;28;20070;-86
2021/12/24 13:12:44;;;;;;;42.17;32.35;;;;;;;6.67;65.93;100998.94;4971235;28;20260;-84
2021/12/24 13:15:16;;;;;;;41.58;32.63;;;;;;;5.62;65.73;100819.53;4971337;28;20059;-85
2021/12/24 13:17:49;;;;;;;44.58;33.92;;;;;;;6.97;64.99;101043.56;4953808;28;20183;-84